Time;durP1;ratioP1;P1;durP2;ratioP2;P2;SDS_P1;SDS_P2;PMS_P1;PMS_P2;Temp;Humidity;BMP_temperature;BMP_pressure;BME280_temperature;BME280_humidity;BME280_pressure;Samples;Min_cycle;Max_cycle;Signal;HPM_P1;HPM_P2
2022/12/19 00:00:48;;;;;;;;;;;-0.40;99.90;;;;;;5066757;28;19935;-91
2022/12/19 00:03:16;;;;;;;;;;;-0.30;99.90;;;;;;5050603;28;19933;-90
2022/12/19 00:05:42;;;;;;;;;;;-0.30;99.90;;;;;;5072928;28;19933;-91
2022/12/19 00:08:15;;;;;;;;;;;0.80;99.90;;;;;;5066150;28;19925;-91
2022/12/19 00:10:41;;;;;;;;;;;-0.20;99.90;;;;;;5048950;28;19924;-91
2022/12/19 00:13:07;;;;;;;;;;;0.50;99.90;;;;;;5059831;28;19929;-91
2022/12/19 00:15:32;;;;;;;;;;;-0.20;99.90;;;;;;5050560;28;19924;-91
2022/12/19 00:17:58;;;;;;;;;;;0.30;99.90;;;;;;5049347;28;19968;-91
2022/12/19 00:20:24;;;;;;;;;;;-0.20;99.90;;;;;;5057781;28;19925;-93
2022/12/19 00:22:49;;;;;;;;;;;-0.20;99.90;;;;;;5050704;28;19924;-91
2022/12/19 00:25:15;;;;;;;;;;;-0.20;99.90;;;;;;5051935;28;19971;-92
2022/12/19 00:27:40;;;;;;;;;;;-0.10;99.90;;;;;;5052075;28;19924;-92
2022/12/19 00:30:06;;;;;;;;;;;0.40;99.90;;;;;;5067867;28;19928;-91
2022/12/19 00:32:32;;;;;;;;;;;-0.10;99.90;;;;;;5067600;28;19970;-93
2022/12/19 00:34:58;;;;;;;;;;;-0.10;99.90;;;;;;5050815;28;19924;-91
2022/12/19 00:37:24;;;;;;;;;;;0.20;99.90;;;;;;5046386;28;19947;-91
2022/12/19 00:39:49;;;;;;;;;;;0.00;99.90;;;;;;5067688;28;19924;-93
2022/12/19 00:42:15;;;;;;;;;;;1.40;99.90;;;;;;5052355;28;19924;-92
2022/12/19 00:44:40;;;;;;;;;;;0.00;99.90;;;;;;5061646;28;19924;-91
2022/12/19 00:47:06;;;;;;;;;;;0.00;99.90;;;;;;5063062;28;19928;-93
2022/12/19 00:49:31;;;;;;;;;;;1.40;99.90;;;;;;5067192;28;20073;-91
2022/12/19 00:51:58;;;;;;;;;;;0.00;99.90;;;;;;5034441;28;19936;-93
2022/12/19 00:54:24;;;;;;;;;;;0.10;99.90;;;;;;5053244;28;20025;-92
2022/12/19 00:56:50;;;;;;;;;;;0.00;99.90;;;;;;5050191;28;19924;-91
2022/12/19 00:59:15;;;;;;;;;;;1.60;99.90;;;;;;5051731;28;19971;-91
2022/12/19 01:01:41;;;;;;;;;;;0.10;99.90;;;;;;5050277;28;19936;-91
2022/12/19 01:04:09;;;;;;;;;;;1.50;99.90;;;;;;5049124;28;19929;-92
2022/12/19 01:06:35;;;;;;;;;;;0.90;99.90;;;;;;5067136;28;19932;-93
2022/12/19 01:09:00;;;;;;;;;;;1.60;99.90;;;;;;5048868;28;19925;-91
2022/12/19 01:14:11;;;;;;;;;;;0.90;99.90;;;;;;5057311;28;19956;-92
2022/12/19 01:16:36;;;;;;;;;;;0.20;99.90;;;;;;5057780;28;19930;-93
2022/12/19 01:19:02;;;;;;;;;;;1.10;99.90;;;;;;5042803;28;19932;-90
2022/12/19 01:21:27;;;;;;;;;;;1.40;99.90;;;;;;5049888;28;19952;-92
2022/12/19 01:23:53;;;;;;;;;;;0.30;99.90;;;;;;5069959;28;19954;-93
2022/12/19 01:26:19;;;;;;;;;;;0.80;99.90;;;;;;5066904;28;19924;-92
2022/12/19 01:28:44;;;;;;;;;;;1.80;99.90;;;;;;5066064;28;19931;-92
2022/12/19 01:31:10;;;;;;;;;;;1.70;99.90;;;;;;5046524;28;19924;-92
2022/12/19 01:33:35;;;;;;;;;;;1.30;99.90;;;;;;5060782;28;19936;-92
2022/12/19 01:36:06;;;;;;;;;;;2.20;99.90;;;;;;5050032;28;19929;-92
2022/12/19 01:38:32;;;;;;;;;;;0.40;99.90;;;;;;5061781;28;19946;-91
2022/12/19 01:40:58;;;;;;;;;;;0.40;99.90;;;;;;5066967;28;20007;-93
2022/12/19 01:43:24;;;;;;;;;;;0.50;99.90;;;;;;5032872;28;19924;-93
2022/12/19 01:46:00;;;;;;;;;;;0.50;99.90;;;;;;5046876;28;20001;-91
2022/12/19 01:48:35;;;;;;;;;;;1.40;99.90;;;;;;5064442;28;19925;-93
2022/12/19 01:51:08;;;;;;;;;;;0.50;99.90;;;;;;5061828;28;20573;-92
2022/12/19 01:53:48;;;;;;;;;;;0.50;99.90;;;;;;5049897;28;19925;-91
2022/12/19 01:56:14;;;;;;;;;;;0.60;99.90;;;;;;5067022;28;19964;-94
2022/12/19 01:58:42;;;;;;;;;;;2.10;99.90;;;;;;5041519;28;19924;-92
2022/12/19 02:01:07;;;;;;;;;;;0.60;99.90;;;;;;5047001;28;19928;-94
2022/12/19 02:03:34;;;;;;;;;;;2.00;99.90;;;;;;5065159;28;19929;-91
2022/12/19 02:06:00;;;;;;;;;;;1.00;99.90;;;;;;5049649;28;20412;-93
2022/12/19 02:08:26;;;;;;;;;;;0.70;99.90;;;;;;5040936;28;19925;-93
2022/12/19 02:10:52;;;;;;;;;;;1.50;99.90;;;;;;5048746;28;19938;-92
2022/12/19 02:13:18;;;;;;;;;;;1.50;99.90;;;;;;5049487;28;19947;-93
2022/12/19 02:15:43;;;;;;;;;;;1.30;99.90;;;;;;5051534;28;19980;-90
2022/12/19 02:18:09;;;;;;;;;;;2.40;99.90;;;;;;5048651;28;19925;-90
2022/12/19 02:20:53;;;;;;;;;;;0.70;99.90;;;;;;5049646;28;19924;-91
2022/12/19 02:23:38;;;;;;;;;;;0.70;99.90;;;;;;5059081;28;19931;-92
2022/12/19 02:26:03;;;;;;;;;;;0.70;99.90;;;;;;5046240;28;19924;-93
2022/12/19 02:28:38;;;;;;;;;;;0.70;99.90;;;;;;5066191;28;19929;-94
2022/12/19 02:31:03;;;;;;;;;;;0.70;99.90;;;;;;5040608;28;19924;-93
2022/12/19 02:33:32;;;;;;;;;;;1.70;99.90;;;;;;5064465;28;19950;-92
2022/12/19 02:36:05;;;;;;;;;;;0.70;99.90;;;;;;5045619;28;19936;-94
2022/12/19 02:38:44;;;;;;;;;;;0.70;99.90;;;;;;5052806;28;19931;-92
2022/12/19 02:41:17;;;;;;;;;;;0.70;99.90;;;;;;5045638;28;19939;-91
2022/12/19 02:43:47;;;;;;;;;;;0.70;99.90;;;;;;5058550;28;20447;-91
2022/12/19 02:46:14;;;;;;;;;;;0.70;99.90;;;;;;5063019;28;19925;-91
2022/12/19 02:48:40;;;;;;;;;;;2.20;99.90;;;;;;5055977;28;19932;-92
2022/12/19 02:51:06;;;;;;;;;;;1.60;99.90;;;;;;5066254;28;19943;-93
2022/12/19 02:53:31;;;;;;;;;;;1.70;99.90;;;;;;5058114;28;20068;-92
2022/12/19 02:56:06;;;;;;;;;;;1.10;99.90;;;;;;5025800;28;21267;-91
2022/12/19 02:58:57;;;;;;;;;;;0.70;99.90;;;;;;5028729;28;19927;-93
2022/12/19 03:01:34;;;;;;;;;;;0.70;99.90;;;;;;5032756;28;20014;-92
2022/12/19 03:04:09;;;;;;;;;;;0.70;99.90;;;;;;5032016;28;20021;-91
2022/12/19 03:06:46;;;;;;;;;;;0.70;99.90;;;;;;5052192;28;19926;-90
2022/12/19 03:09:31;;;;;;;;;;;0.80;99.90;;;;;;5053533;28;20395;-93
2022/12/19 03:12:01;;;;;;;;;;;0.80;99.90;;;;;;5039401;28;19930;-92
2022/12/19 03:14:28;;;;;;;;;;;0.80;99.90;;;;;;5051384;28;20089;-93
2022/12/19 03:16:53;;;;;;;;;;;1.70;99.90;;;;;;5041999;28;20795;-93
2022/12/19 03:19:19;;;;;;;;;;;1.80;99.90;;;;;;5020044;28;19926;-91
2022/12/19 03:21:46;;;;;;;;;;;1.50;99.90;;;;;;5036815;28;19965;-92
2022/12/19 03:24:13;;;;;;;;;;;1.50;99.90;;;;;;5058412;28;19926;-91
2022/12/19 03:26:53;;;;;;;;;;;2.20;99.90;;;;;;5055930;28;20316;-92
2022/12/19 03:29:30;;;;;;;;;;;0.80;99.90;;;;;;5042979;28;19973;-91
2022/12/19 03:31:56;;;;;;;;;;;0.90;99.90;;;;;;5056872;28;19932;-92
2022/12/19 03:34:31;;;;;;;;;;;2.30;99.90;;;;;;5052575;28;19949;-92
2022/12/19 03:37:02;;;;;;;;;;;0.90;99.90;;;;;;5041470;28;19938;-91
2022/12/19 03:39:29;;;;;;;;;;;2.20;99.90;;;;;;5074537;28;19936;-90
2022/12/19 03:44:41;;;;;;;;;;;1.70;99.90;;;;;;5056656;28;19969;-90
2022/12/19 03:47:13;;;;;;;;;;;1.00;99.90;;;;;;5063363;28;19934;-92
2022/12/19 03:49:39;;;;;;;;;;;1.00;99.90;;;;;;5055296;28;20313;-90
2022/12/19 03:52:11;;;;;;;;;;;1.90;99.90;;;;;;5029742;28;19930;-94
2022/12/19 03:54:41;;;;;;;;;;;-0.10;99.90;;;;;;5035774;28;19940;-92
2022/12/19 03:57:22;;;;;;;;;;;1.70;99.90;;;;;;5046714;28;19926;-92
2022/12/19 03:59:48;;;;;;;;;;;1.10;99.90;;;;;;5043149;28;19934;-92
2022/12/19 04:02:14;;;;;;;;;;;0.00;99.90;;;;;;5053737;28;20518;-91
2022/12/19 04:04:42;;;;;;;;;;;1.10;99.90;;;;;;5055467;28;19926;-93
2022/12/19 04:07:09;;;;;;;;;;;1.90;99.90;;;;;;5033392;28;19952;-92
2022/12/19 04:09:36;;;;;;;;;;;1.20;99.90;;;;;;5015631;28;19965;-91
2022/12/19 04:12:07;;;;;;;;;;;2.70;99.90;;;;;;5057339;28;19933;-93
2022/12/19 04:14:37;;;;;;;;;;;1.20;99.90;;;;;;5047766;28;20294;-92
2022/12/19 04:17:21;;;;;;;;;;;1.20;99.90;;;;;;5029524;28;19926;-91
2022/12/19 04:19:52;;;;;;;;;;;1.30;99.90;;;;;;5038343;28;19962;-93
2022/12/19 04:22:33;;;;;;;;;;;1.80;99.90;;;;;;5030732;28;19926;-92
2022/12/19 04:25:00;;;;;;;;;;;1.30;99.90;;;;;;5046815;28;19926;-92
2022/12/19 04:27:26;;;;;;;;;;;2.40;99.90;;;;;;5028092;28;19926;-92
2022/12/19 04:29:54;;;;;;;;;;;1.40;99.90;;;;;;5034922;28;19933;-94
2022/12/19 04:32:21;;;;;;;;;;;2.30;99.90;;;;;;5022961;28;19926;-95
2022/12/19 04:34:46;;;;;;;;;;;1.40;99.90;;;;;;5043575;28;19930;-95
2022/12/19 04:37:12;;;;;;;;;;;2.30;99.90;;;;;;5011683;28;19932;-93
2022/12/19 04:39:38;;;;;;;;;;;2.00;99.90;;;;;;5029141;28;19926;-93
2022/12/19 04:42:03;;;;;;;;;;;1.60;99.90;;;;;;4945206;28;20451;-94
2022/12/19 04:44:29;;;;;;;;;;;1.50;99.90;;;;;;5048924;28;20232;-94
2022/12/19 04:46:55;;;;;;;;;;;1.50;99.90;;;;;;5020506;28;19929;-94
2022/12/19 04:49:20;;;;;;;;;;;2.40;99.90;;;;;;5031705;28;20000;-96
2022/12/19 04:51:46;;;;;;;;;;;1.60;99.90;;;;;;5033198;28;20487;-93
2022/12/19 04:54:12;;;;;;;;;;;2.80;99.90;;;;;;5044237;28;19924;-95
2022/12/19 04:56:37;;;;;;;;;;;1.70;99.90;;;;;;5055993;28;19926;-94
2022/12/19 04:59:04;;;;;;;;;;;1.60;99.90;;;;;;5051249;28;19947;-93
2022/12/19 05:01:29;;;;;;;;;;;1.60;99.90;;;;;;5049763;28;19943;-93
2022/12/19 05:03:55;;;;;;;;;;;1.60;99.90;;;;;;5050267;28;20399;-94
2022/12/19 05:06:21;;;;;;;;;;;1.90;99.90;;;;;;5033654;28;19924;-95
2022/12/19 05:08:47;;;;;;;;;;;2.50;99.90;;;;;;5063854;28;19936;-96
2022/12/19 05:11:14;;;;;;;;;;;1.70;99.90;;;;;;5034968;28;19971;-94
2022/12/19 05:13:39;;;;;;;;;;;1.70;99.90;;;;;;5050027;28;19924;-94
2022/12/19 05:16:06;;;;;;;;;;;3.00;99.90;;;;;;5054185;28;19925;-94
2022/12/19 05:18:32;;;;;;;;;;;1.70;99.90;;;;;;5045634;28;19925;-96
2022/12/19 05:20:58;;;;;;;;;;;3.20;99.90;;;;;;5045515;28;19951;-94
2022/12/19 05:23:24;;;;;;;;;;;1.80;99.90;;;;;;5048968;28;19925;-93
2022/12/19 05:25:49;;;;;;;;;;;2.00;99.90;;;;;;5051445;28;19924;-95
2022/12/19 05:28:15;;;;;;;;;;;1.70;99.90;;;;;;5047771;28;19939;-95
2022/12/19 05:30:41;;;;;;;;;;;2.60;99.90;;;;;;5049702;28;19925;-95
2022/12/19 05:33:07;;;;;;;;;;;1.80;99.90;;;;;;5050197;28;19929;-95
2022/12/19 05:35:33;;;;;;;;;;;1.90;99.90;;;;;;5057978;28;19992;-95
2022/12/19 05:37:59;;;;;;;;;;;1.90;99.90;;;;;;5050333;28;19931;-94
2022/12/19 05:40:25;;;;;;;;;;;2.90;99.90;;;;;;5033430;28;19924;-94
2022/12/19 05:42:50;;;;;;;;;;;2.00;99.90;;;;;;5051386;28;20323;-94
2022/12/19 05:45:16;;;;;;;;;;;1.90;99.90;;;;;;5050085;28;19934;-92
2022/12/19 05:47:45;;;;;;;;;;;2.00;99.90;;;;;;5044840;28;20027;-94
2022/12/19 05:50:17;;;;;;;;;;;2.00;99.90;;;;;;5051401;28;20000;-95
2022/12/19 05:52:42;;;;;;;;;;;2.00;99.90;;;;;;5048936;28;19924;-93
2022/12/19 05:55:10;;;;;;;;;;;2.00;99.90;;;;;;5034225;28;20335;-93
2022/12/19 05:57:41;;;;;;;;;;;3.30;99.90;;;;;;5048948;28;19924;-95
2022/12/19 06:00:07;;;;;;;;;;;2.10;99.90;;;;;;5048813;28;20031;-94
2022/12/19 06:02:33;;;;;;;;;;;2.10;99.90;;;;;;5031993;28;19925;-93
2022/12/19 06:04:58;;;;;;;;;;;2.10;99.90;;;;;;5050713;28;19924;-94
2022/12/19 06:07:24;;;;;;;;;;;3.50;99.90;;;;;;5033569;28;19924;-94
2022/12/19 06:09:50;;;;;;;;;;;2.10;99.90;;;;;;5032862;28;19932;-94
2022/12/19 06:12:15;;;;;;;;;;;2.20;99.90;;;;;;5053118;28;19924;-93
2022/12/19 06:14:41;;;;;;;;;;;2.20;99.90;;;;;;5047271;28;20015;-94
2022/12/19 06:17:06;;;;;;;;;;;2.30;99.90;;;;;;5050350;28;19932;-94
2022/12/19 06:19:32;;;;;;;;;;;2.90;99.90;;;;;;5047765;28;19974;-93
2022/12/19 06:21:58;;;;;;;;;;;2.40;99.90;;;;;;5051997;28;19939;-96
2022/12/19 06:24:24;;;;;;;;;;;2.40;99.90;;;;;;5049417;28;20017;-94
2022/12/19 06:26:49;;;;;;;;;;;2.30;99.90;;;;;;5064083;28;20547;-95
2022/12/19 06:29:15;;;;;;;;;;;2.40;99.90;;;;;;5051452;28;19928;-94
2022/12/19 06:31:47;;;;;;;;;;;2.40;99.90;;;;;;5051653;28;19928;-94
2022/12/19 06:34:12;;;;;;;;;;;2.40;99.90;;;;;;5034161;28;19963;-94
2022/12/19 06:36:38;;;;;;;;;;;2.50;99.90;;;;;;5050734;28;19924;-94
2022/12/19 06:39:03;;;;;;;;;;;2.40;99.90;;;;;;5043321;28;19925;-94
2022/12/19 06:44:14;;;;;;;;;;;2.60;99.90;;;;;;5063281;28;19929;-94
2022/12/19 06:46:40;;;;;;;;;;;2.60;99.90;;;;;;5049945;28;19939;-95
2022/12/19 06:49:06;;;;;;;;;;;2.70;99.90;;;;;;5052123;28;19925;-93
2022/12/19 06:51:35;;;;;;;;;;;2.70;99.90;;;;;;5050635;28;19924;-95
2022/12/19 06:54:01;;;;;;;;;;;3.40;99.90;;;;;;5057878;28;19925;-93
2022/12/19 06:56:27;;;;;;;;;;;2.80;99.90;;;;;;5065970;28;20450;-94
2022/12/19 06:58:53;;;;;;;;;;;2.90;99.90;;;;;;5049812;28;19924;-95
2022/12/19 07:01:20;;;;;;;;;;;3.00;99.90;;;;;;5025376;28;20454;-94
2022/12/19 07:03:46;;;;;;;;;;;3.00;99.90;;;;;;5048959;28;20322;-92
2022/12/19 07:06:12;;;;;;;;;;;3.00;99.90;;;;;;5064760;28;19925;-93
2022/12/19 07:08:37;;;;;;;;;;;3.00;99.90;;;;;;5048887;28;19925;-93
2022/12/19 07:11:03;;;;;;;;;;;3.00;99.90;;;;;;5065111;28;19956;-94
2022/12/19 07:13:29;;;;;;;;;;;3.00;99.90;;;;;;5041600;28;19936;-95
2022/12/19 07:15:57;;;;;;;;;;;3.60;99.90;;;;;;5046577;28;19925;-93
2022/12/19 07:18:22;;;;;;;;;;;3.00;99.90;;;;;;5048254;28;19924;-95
2022/12/19 07:20:48;;;;;;;;;;;3.00;99.90;;;;;;5061706;28;19931;-93
2022/12/19 07:23:17;;;;;;;;;;;3.70;99.90;;;;;;5034993;28;19971;-93
2022/12/19 07:25:43;;;;;;;;;;;3.00;99.90;;;;;;5048307;28;19924;-94
2022/12/19 07:28:09;;;;;;;;;;;3.00;99.90;;;;;;5048274;28;19936;-92
2022/12/19 07:30:34;;;;;;;;;;;3.10;99.90;;;;;;5046026;28;20047;-93
2022/12/19 07:33:00;;;;;;;;;;;3.10;99.90;;;;;;5028276;28;20008;-95
2022/12/19 07:35:26;;;;;;;;;;;4.10;99.90;;;;;;5083670;28;19924;-93
2022/12/19 07:37:51;;;;;;;;;;;3.10;99.90;;;;;;5048928;28;19946;-93
2022/12/19 07:40:17;;;;;;;;;;;3.20;99.90;;;;;;5047210;28;19929;-94
2022/12/19 07:42:43;;;;;;;;;;;3.20;99.90;;;;;;5049273;28;19984;-92
2022/12/19 07:45:09;;;;;;;;;;;3.20;99.90;;;;;;5047952;28;19931;-95
2022/12/19 07:47:35;;;;;;;;;;;3.30;99.90;;;;;;5047904;28;19928;-92
2022/12/19 07:50:01;;;;;;;;;;;4.10;99.90;;;;;;5047784;28;19925;-95
2022/12/19 07:52:26;;;;;;;;;;;3.30;99.90;;;;;;5044158;28;20342;-95
2022/12/19 07:54:52;;;;;;;;;;;3.30;99.90;;;;;;5062173;28;19970;-93
2022/12/19 07:57:18;;;;;;;;;;;3.30;99.90;;;;;;5047969;28;20009;-93
2022/12/19 07:59:43;;;;;;;;;;;4.10;99.90;;;;;;5065356;28;19978;-96
2022/12/19 08:02:09;;;;;;;;;;;3.40;99.90;;;;;;5047289;28;19935;-93
2022/12/19 08:04:35;;;;;;;;;;;3.40;99.90;;;;;;5048067;28;19980;-93
2022/12/19 08:07:03;;;;;;;;;;;3.40;99.90;;;;;;5047838;28;19925;-92
2022/12/19 08:09:29;;;;;;;;;;;3.50;99.90;;;;;;5049079;28;19929;-94
2022/12/19 08:11:57;;;;;;;;;;;3.50;99.90;;;;;;5047351;28;19932;-93
2022/12/19 08:14:23;;;;;;;;;;;3.50;99.90;;;;;;5048248;28;19925;-93
2022/12/19 08:16:48;;;;;;;;;;;3.50;99.90;;;;;;5047811;28;19996;-94
2022/12/19 08:19:14;;;;;;;;;;;3.50;99.90;;;;;;5050758;28;19947;-95
2022/12/19 08:21:42;;;;;;;;;;;3.50;99.90;;;;;;5054180;28;19956;-94
2022/12/19 08:24:08;;;;;;;;;;;4.70;99.90;;;;;;5051279;28;20002;-93
2022/12/19 08:26:34;;;;;;;;;;;3.60;99.90;;;;;;5053442;28;19924;-95
2022/12/19 08:29:00;;;;;;;;;;;3.60;99.90;;;;;;5065445;28;19963;-92
2022/12/19 08:31:26;;;;;;;;;;;3.60;99.90;;;;;;5052349;28;19947;-94
2022/12/19 08:33:52;;;;;;;;;;;3.70;99.90;;;;;;5050850;28;19931;-95
2022/12/19 08:36:19;;;;;;;;;;;3.70;99.90;;;;;;5052899;28;19924;-95
2022/12/19 08:38:45;;;;;;;;;;;4.50;99.90;;;;;;5054729;28;19928;-95
2022/12/19 08:41:11;;;;;;;;;;;3.70;99.90;;;;;;5051022;28;20019;-94
2022/12/19 08:43:39;;;;;;;;;;;5.00;99.90;;;;;;5070857;28;19924;-94
2022/12/19 08:46:05;;;;;;;;;;;3.80;99.90;;;;;;5052586;28;20097;-94
2022/12/19 08:48:31;;;;;;;;;;;3.90;99.90;;;;;;5023509;28;20379;-94
2022/12/19 08:50:58;;;;;;;;;;;3.80;99.90;;;;;;5058865;28;20351;-93
2022/12/19 08:53:25;;;;;;;;;;;3.90;99.90;;;;;;5059320;28;20451;-94
2022/12/19 08:55:57;;;;;;;;;;;3.90;99.90;;;;;;5052595;28;19947;-95
2022/12/19 08:58:41;;;;;;;;;;;4.00;99.90;;;;;;5061679;28;19971;-94
2022/12/19 09:01:09;;;;;;;;;;;4.00;99.90;;;;;;5052747;28;19982;-94
2022/12/19 09:03:35;;;;;;;;;;;4.10;99.90;;;;;;5049323;28;19978;-92
2022/12/19 09:06:02;;;;;;;;;;;4.10;99.90;;;;;;5055858;28;19925;-94
2022/12/19 09:08:28;;;;;;;;;;;4.10;99.90;;;;;;5042630;28;19944;-93
2022/12/19 09:10:58;;;;;;;;;;;4.10;99.90;;;;;;5053228;28;19924;-93
2022/12/19 09:13:24;;;;;;;;;;;4.20;99.90;;;;;;5049901;28;19924;-93
2022/12/19 09:15:57;;;;;;;;;;;4.20;99.90;;;;;;5051006;28;19924;-94
2022/12/19 09:18:23;;;;;;;;;;;4.20;99.90;;;;;;5066829;28;19933;-95
2022/12/19 09:20:51;;;;;;;;;;;4.40;99.90;;;;;;5052303;28;19924;-95
2022/12/19 09:23:17;;;;;;;;;;;4.80;99.90;;;;;;5063078;28;19935;-95
2022/12/19 09:25:43;;;;;;;;;;;4.30;99.90;;;;;;5043315;28;19924;-94
2022/12/19 09:28:09;;;;;;;;;;;4.40;99.90;;;;;;5049974;28;19940;-92
2022/12/19 09:30:34;;;;;;;;;;;4.40;99.90;;;;;;5044319;28;19925;-94
2022/12/19 09:33:00;;;;;;;;;;;4.50;99.90;;;;;;5042020;28;19988;-94
2022/12/19 09:35:28;;;;;;;;;;;4.50;99.90;;;;;;5045217;28;19925;-93
2022/12/19 09:37:53;;;;;;;;;;;4.50;99.90;;;;;;5051829;28;19925;-93
2022/12/19 09:40:19;;;;;;;;;;;4.50;99.90;;;;;;5047988;28;19947;-94
2022/12/19 09:42:45;;;;;;;;;;;4.60;99.90;;;;;;5046770;28;19925;-93
2022/12/19 09:45:10;;;;;;;;;;;4.60;99.90;;;;;;5056353;28;19924;-93
2022/12/19 09:47:38;;;;;;;;;;;4.60;99.90;;;;;;5046625;28;19994;-94
2022/12/19 09:50:09;;;;;;;;;;;4.70;99.90;;;;;;5054885;28;19970;-95
2022/12/19 09:52:38;;;;;;;;;;;4.70;99.90;;;;;;5041270;28;19928;-95
2022/12/19 09:55:10;;;;;;;;;;;5.50;99.90;;;;;;5050684;28;19924;-96
2022/12/19 09:57:51;;;;;;;;;;;4.80;99.90;;;;;;5064210;28;19967;-94
2022/12/19 10:00:18;;;;;;;;;;;4.90;99.90;;;;;;5042438;28;19935;-94
2022/12/19 10:02:43;;;;;;;;;;;4.90;99.90;;;;;;5046293;28;19931;-93
2022/12/19 10:05:21;;;;;;;;;;;5.00;99.90;;;;;;5047363;28;19924;-93
2022/12/19 10:07:46;;;;;;;;;;;5.10;99.90;;;;;;5046385;28;19935;-94
2022/12/19 10:10:14;;;;;;;;;;;5.00;99.90;;;;;;5046279;28;19925;-96
2022/12/19 10:12:40;;;;;;;;;;;5.10;99.90;;;;;;5048576;28;19925;-94
2022/12/19 10:15:15;;;;;;;;;;;5.10;99.90;;;;;;5036232;28;20220;-94
2022/12/19 10:17:46;;;;;;;;;;;5.20;99.90;;;;;;5049613;28;20001;-94
2022/12/19 10:20:24;;;;;;;;;;;5.20;99.90;;;;;;5066627;28;19925;-95
2022/12/19 10:22:49;;;;;;;;;;;5.30;99.90;;;;;;5045651;28;19925;-95
2022/12/19 10:25:33;;;;;;;;;;;5.30;99.90;;;;;;5066991;28;19980;-92
2022/12/19 10:28:04;;;;;;;;;;;5.30;99.90;;;;;;5057120;28;20395;-93
2022/12/19 10:30:41;;;;;;;;;;;5.40;99.90;;;;;;5042425;28;19928;-95
2022/12/19 10:33:16;;;;;;;;;;;5.40;99.90;;;;;;5051270;28;19929;-93
2022/12/19 10:35:43;;;;;;;;;;;5.40;99.90;;;;;;5081671;28;19924;-93
2022/12/19 10:38:15;;;;;;;;;;;5.50;99.90;;;;;;5051248;28;20011;-93
2022/12/19 10:40:42;;;;;;;;;;;5.40;99.90;;;;;;5051052;28;20271;-93
2022/12/19 10:43:10;;;;;;;;;;;5.50;99.90;;;;;;5051889;28;19925;-92
2022/12/19 10:45:39;;;;;;;;;;;5.60;99.90;;;;;;5049876;28;20477;-93
2022/12/19 10:48:08;;;;;;;;;;;5.60;99.90;;;;;;5046573;28;19925;-94
2022/12/19 10:50:34;;;;;;;;;;;5.30;99.90;;;;;;5051515;28;19964;-92
2022/12/19 10:53:03;;;;;;;;;;;5.70;99.90;;;;;;5050388;28;19924;-93
2022/12/19 10:55:33;;;;;;;;;;;5.70;99.90;;;;;;5058155;28;19982;-94
2022/12/19 10:58:01;;;;;;;;;;;5.80;99.90;;;;;;5053567;28;20429;-92
2022/12/19 11:00:28;;;;;;;;;;;5.80;99.90;;;;;;5054132;28;19980;-93
2022/12/19 11:03:06;;;;;;;;;;;5.90;99.90;;;;;;5036345;28;19950;-92
2022/12/19 11:05:40;;;;;;;;;;;5.90;99.90;;;;;;5058150;28;20407;-93
2022/12/19 11:08:06;;;;;;;;;;;6.00;99.90;;;;;;5071190;28;20406;-93
2022/12/19 11:10:38;;;;;;;;;;;6.00;99.90;;;;;;5053250;28;19934;-93
2022/12/19 11:13:19;;;;;;;;;;;6.00;99.90;;;;;;5051444;28;19925;-92
2022/12/19 11:15:48;;;;;;;;;;;6.00;99.90;;;;;;5043728;28;19932;-94
2022/12/19 11:18:15;;;;;;;;;;;6.00;99.90;;;;;;5064240;28;19924;-93
2022/12/19 11:20:52;;;;;;;;;;;6.10;99.90;;;;;;5040572;28;19925;-93
2022/12/19 11:23:17;;;;;;;;;;;6.00;99.90;;;;;;5063307;28;19970;-94
2022/12/19 11:25:51;;;;;;;;;;;6.10;99.90;;;;;;5048951;28;19924;-92
2022/12/19 11:28:23;;;;;;;;;;;6.10;99.90;;;;;;5046154;28;19939;-93
2022/12/19 11:30:56;;;;;;;;;;;6.10;99.90;;;;;;5055650;28;19925;-93
2022/12/19 11:33:22;;;;;;;;;;;6.10;99.90;;;;;;5043930;28;19932;-92
2022/12/19 11:35:49;;;;;;;;;;;6.10;99.90;;;;;;5031715;28;19924;-95
2022/12/19 11:38:17;;;;;;;;;;;6.10;99.90;;;;;;5045737;28;19931;-94
2022/12/19 11:40:48;;;;;;;;;;;6.10;99.90;;;;;;5051608;28;19924;-92
2022/12/19 11:43:27;;;;;;;;;;;6.20;99.90;;;;;;5063678;28;19924;-92
2022/12/19 11:45:55;;;;;;;;;;;6.20;99.90;;;;;;5048530;28;20058;-94
2022/12/19 11:48:30;;;;;;;;;;;6.30;99.90;;;;;;5046429;28;19925;-93
2022/12/19 11:51:05;;;;;;;;;;;6.30;99.90;;;;;;5048662;28;19932;-93
2022/12/19 11:53:57;;;;;;;;;;;6.30;99.90;;;;;;5036326;28;19940;-93
2022/12/19 11:56:24;;;;;;;;;;;6.40;99.90;;;;;;5036359;28;19930;-92
2022/12/19 11:59:01;;;;;;;;;;;6.40;99.90;;;;;;5052144;28;19931;-91
2022/12/19 12:01:26;;;;;;;;;;;6.50;99.90;;;;;;5052774;28;19960;-91
2022/12/19 12:03:55;;;;;;;;;;;6.50;99.90;;;;;;5052022;28;19925;-92
2022/12/19 12:06:22;;;;;;;;;;;6.60;99.90;;;;;;5049007;28;19925;-93
2022/12/19 12:08:50;;;;;;;;;;;6.60;99.90;;;;;;5047443;28;19925;-94
2022/12/19 12:11:34;;;;;;;;;;;6.60;99.90;;;;;;5052076;28;19931;-94
2022/12/19 12:14:03;;;;;;;;;;;6.60;99.90;;;;;;5051623;28;19924;-94
2022/12/19 12:16:39;;;;;;;;;;;6.70;99.90;;;;;;5051940;28;19935;-95
2022/12/19 12:19:23;;;;;;;;;;;6.70;99.90;;;;;;5046272;28;19924;-94
2022/12/19 12:22:08;;;;;;;;;;;7.20;99.90;;;;;;5044887;28;19939;-95
2022/12/19 12:24:40;;;;;;;;;;;6.80;99.90;;;;;;5057405;28;19947;-95
2022/12/19 12:27:17;;;;;;;;;;;6.80;99.90;;;;;;5052234;28;20011;-92
2022/12/19 12:30:03;;;;;;;;;;;6.90;99.90;;;;;;5051794;28;20265;-92
2022/12/19 12:32:38;;;;;;;;;;;6.80;99.90;;;;;;5043186;28;20011;-92
2022/12/19 12:35:23;;;;;;;;;;;6.90;99.90;;;;;;5048960;28;19929;-93
2022/12/19 12:37:52;;;;;;;;;;;6.90;99.90;;;;;;5071482;28;19959;-93
2022/12/19 12:40:33;;;;;;;;;;;7.00;99.90;;;;;;5068025;28;19929;-92
2022/12/19 12:43:02;;;;;;;;;;;7.00;99.90;;;;;;5054219;28;19946;-93
2022/12/19 12:45:33;;;;;;;;;;;7.00;99.90;;;;;;5058163;28;19929;-94
2022/12/19 12:47:59;;;;;;;;;;;7.00;99.90;;;;;;5046895;28;19954;-92
2022/12/19 12:50:25;;;;;;;;;;;7.00;99.90;;;;;;5048324;28;19934;-93
2022/12/19 12:52:53;;;;;;;;;;;7.00;99.90;;;;;;5048152;28;20046;-93
2022/12/19 12:55:38;;;;;;;;;;;7.10;99.90;;;;;;5051796;28;19943;-93
2022/12/19 12:58:05;;;;;;;;;;;7.10;99.90;;;;;;5066456;28;19974;-93
2022/12/19 13:00:30;;;;;;;;;;;7.00;99.90;;;;;;5071488;28;19924;-92
2022/12/19 13:03:04;;;;;;;;;;;7.00;99.90;;;;;;5053419;28;19933;-92
2022/12/19 13:05:36;;;;;;;;;;;7.10;99.90;;;;;;5053822;28;19933;-93
2022/12/19 13:08:21;;;;;;;;;;;7.10;99.90;;;;;;5032550;28;19939;-93
2022/12/19 13:10:57;;;;;;;;;;;7.10;99.90;;;;;;5045203;28;19928;-94
2022/12/19 13:13:45;;;;;;;;;;;7.10;99.90;;;;;;5043905;28;19948;-93
2022/12/19 13:16:29;;;;;;;;;;;7.10;99.90;;;;;;5058564;28;20007;-92
2022/12/19 13:19:03;;;;;;;;;;;7.10;99.90;;;;;;5050573;28;19935;-93
2022/12/19 13:21:48;;;;;;;;;;;7.10;99.90;;;;;;5051019;28;19929;-92
2022/12/19 13:24:19;;;;;;;;;;;7.10;99.90;;;;;;5071766;28;19924;-93
2022/12/19 13:26:46;;;;;;;;;;;7.10;99.90;;;;;;5051275;28;19964;-92
2022/12/19 13:29:25;;;;;;;;;;;7.10;99.90;;;;;;5060978;28;20008;-91
2022/12/19 13:32:11;;;;;;;;;;;7.10;99.90;;;;;;5050576;28;20386;-94
2022/12/19 13:34:36;;;;;;;;;;;7.10;99.90;;;;;;5050423;28;19928;-93
2022/12/19 13:37:08;;;;;;;;;;;7.10;99.90;;;;;;5050517;28;19988;-93
2022/12/19 13:39:42;;;;;;;;;;;7.10;99.90;;;;;;5051645;28;20410;-91
2022/12/19 13:45:14;;;;;;;;;;;7.10;99.90;;;;;;5067208;28;19964;-93
2022/12/19 13:47:41;;;;;;;;;;;7.10;99.90;;;;;;5049560;28;20015;-92
2022/12/19 13:50:28;;;;;;;;;;;7.10;99.90;;;;;;5046954;28;20441;-92
2022/12/19 13:52:54;;;;;;;;;;;7.20;99.90;;;;;;5037649;28;19971;-91
2022/12/19 13:55:20;;;;;;;;;;;7.20;99.90;;;;;;5050200;28;19924;-92
2022/12/19 13:57:47;;;;;;;;;;;7.20;99.90;;;;;;5048621;28;19924;-93
2022/12/19 14:00:17;;;;;;;;;;;7.20;99.90;;;;;;5062149;28;19939;-93
2022/12/19 14:02:47;;;;;;;;;;;7.30;99.90;;;;;;5057983;28;19935;-92
2022/12/19 14:05:25;;;;;;;;;;;7.30;99.90;;;;;;5050300;28;19972;-94
2022/12/19 14:07:51;;;;;;;;;;;7.30;99.90;;;;;;5062830;28;19924;-92
2022/12/19 14:10:18;;;;;;;;;;;7.30;99.90;;;;;;5050281;28;19935;-91
2022/12/19 14:15:31;;;;;;;;;;;7.30;99.90;;;;;;5077572;28;19924;-91
2022/12/19 14:18:01;;;;;;;;;;;7.40;99.90;;;;;;5073732;28;20318;-93
2022/12/19 14:20:28;;;;;;;;;;;7.30;99.90;;;;;;5053796;28;19935;-94
2022/12/19 14:22:58;;;;;;;;;;;7.40;99.90;;;;;;5055466;28;19924;-94
2022/12/19 14:25:33;;;;;;;;;;;7.40;99.90;;;;;;5052441;28;19970;-92
2022/12/19 14:28:02;;;;;;;;;;;7.40;99.90;;;;;;5048674;28;19924;-92
2022/12/19 14:30:30;;;;;;;;;;;7.40;99.90;;;;;;5049928;28;19929;-94
2022/12/19 14:32:57;;;;;;;;;;;7.40;99.90;;;;;;5048102;28;19925;-94
2022/12/19 14:35:25;;;;;;;;;;;7.40;99.90;;;;;;5050278;28;19924;-95
2022/12/19 14:38:07;;;;;;;;;;;7.40;99.90;;;;;;5066102;28;19928;-94
2022/12/19 14:40:37;;;;;;;;;;;7.40;99.90;;;;;;5050230;28;19946;-92
2022/12/19 14:45:52;;;;;;;;;;;7.40;99.90;;;;;;5064896;28;19943;-94
2022/12/19 14:48:37;;;;;;;;;;;7.50;99.90;;;;;;5035910;28;19931;-94
2022/12/19 14:51:11;;;;;;;;;;;7.50;99.90;;;;;;5039921;28;19925;-94
2022/12/19 14:53:38;;;;;;;;;;;7.40;99.90;;;;;;5047824;28;19929;-93
2022/12/19 14:56:05;;;;;;;;;;;7.40;99.90;;;;;;5048771;28;19964;-93